This is the latest recevied weather packets stored in our database for station/object IT9DBI-3. If no packets are shown the sender has not sent any weather packets the latest 10 day(s).
| Time | Temp. | Humidity | Pressure | Rain* | Wind** | Luminosity | Snow |
|---|---|---|---|---|---|---|---|
| 1777692681 | 9.44° C | 78% | 1020.1 hPa | - | - | - | - |
| 1777691479 | 9.44° C | 79% | 1020.2 hPa | - | - | - | - |
| 1777690277 | 10° C | 74% | 1020.1 hPa | - | - | - | - |
| 1777689076 | 10.56° C | 73% | 1020 hPa | - | - | - | - |
| 1777687875 | 10.56° C | 76% | 1020.1 hPa | - | - | - | - |
| 1777686671 | 10.56° C | 78% | 1020 hPa | - | - | - | - |
| 1777685467 | 10.56° C | 79% | 1019.9 hPa | - | - | - | - |
| 1777683058 | 11.11° C | 78% | 1019.7 hPa | - | - | - | - |
| 1777681857 | 12.78° C | 69% | 1019.7 hPa | - | - | - | - |
| 1777680651 | 12.22° C | 77% | 1019.7 hPa | - | - | - | - |
| 1777679447 | 13.33° C | 65% | 1019.5 hPa | - | - | - | - |
| 1777678243 | 12.78° C | 73% | 1019.5 hPa | - | - | - | - |
| 1777677041 | 13.89° C | 62% | 1019.6 hPa | - | - | - | - |
| 1777675840 | 14.44° C | 57% | 1019.8 hPa | - | - | - | - |
| 1777674640 | 15° C | 56% | 1019.6 hPa | - | - | - | - |
| 1777673437 | 14.44° C | 57% | 1019.7 hPa | - | - | - | - |
| 1777672236 | 14.44° C | 58% | 1019.8 hPa | - | - | - | - |
| 1777671035 | 13.89° C | 62% | 1019.9 hPa | - | - | - | - |
| 1777669833 | 13.89° C | 61% | 1020 hPa | - | - | - | - |
| 1777668632 | 14.44° C | 60% | 1019.8 hPa | - | - | - | - |
| 1777667431 | 13.89° C | 67% | 1019.8 hPa | - | - | - | - |
| 1777666229 | 13.89° C | 68% | 1019.8 hPa | - | - | - | - |
| 1777665028 | 13.89° C | 66% | 1019.6 hPa | - | - | - | - |
| 1777663827 | 13.89° C | 65% | 1019.4 hPa | - | - | - | - |
| 1777662625 | 14.44° C | 60% | 1019.3 hPa | - | - | - | - |
* Rain since midnight (hover to see other rain measurements)
** Current wind speed in m/s (hover to see current wind gust speed)